Time;durP1;ratioP1;P1;durP2;ratioP2;P2;SDS_P1;SDS_P2;PMS_P1;PMS_P2;Temp;Humidity;BMP_temperature;BMP_pressure;BME280_temperature;BME280_humidity;BME280_pressure;Samples;Min_cycle;Max_cycle;Signal;HPM_P1;HPM_P2
2023/11/12 00:01:12;;;;;;;3.67;2.73;;;;;;;9.87;94.73;99857.38;4749800;30;20710;-68
2023/11/12 00:03:48;;;;;;;6.00;3.05;;;;;;;10.32;99.95;99860.66;4749439;30;20489;-66
2023/11/12 00:06:21;;;;;;;5.37;3.03;;;;;;;9.76;95.23;99861.63;4734974;30;20200;-68
2023/11/12 00:08:54;;;;;;;5.53;1.90;;;;;;;9.71;97.60;99857.94;4748597;30;20829;-69
2023/11/12 00:11:35;;;;;;;5.57;2.28;;;;;;;9.59;99.67;99865.91;4736586;30;20579;-68
2023/11/12 00:14:11;;;;;;;4.88;3.00;;;;;;;9.81;97.53;99864.47;4740592;30;20650;-66
2023/11/12 00:16:47;;;;;;;5.87;3.93;;;;;;;9.51;95.98;99868.91;4738830;30;20235;-67
2023/11/12 00:19:20;;;;;;;3.80;1.70;;;;;;;9.78;100.00;99866.81;4734652;30;20436;-67
2023/11/12 00:21:54;;;;;;;9.77;2.38;;;;;;;8.94;97.01;99862.66;4735161;30;20886;-68
2023/11/12 00:24:31;;;;;;;11.05;2.88;;;;;;;9.23;99.63;99860.38;4749448;30;20286;-68
2023/11/12 00:27:07;;;;;;;2.63;1.95;;;;;;;9.14;100.00;99868.75;4749868;30;20215;-68
2023/11/12 00:29:41;;;;;;;4.72;2.55;;;;;;;9.40;98.20;99866.88;4734942;30;20695;-68
2023/11/12 00:32:17;;;;;;;3.60;2.50;;;;;;;9.39;100.00;99870.66;4749724;30;20597;-67
2023/11/12 00:34:49;;;;;;;4.00;2.55;;;;;;;9.75;100.00;99870.75;4734149;30;20652;-66
2023/11/12 00:37:23;;;;;;;4.60;3.03;;;;;;;10.27;100.00;99863.19;4732196;30;20209;-67
2023/11/12 00:39:59;;;;;;;5.35;2.95;;;;;;;9.90;97.90;99873.94;4748017;30;20204;-67
2023/11/12 00:42:36;;;;;;;3.35;2.85;;;;;;;9.96;99.68;99866.84;4749066;30;20271;-67
2023/11/12 00:45:11;;;;;;;3.90;2.90;;;;;;;9.87;97.75;99869.00;4749637;30;20266;-68
2023/11/12 00:47:46;;;;;;;4.45;2.22;;;;;;;10.19;100.00;99877.03;4735115;30;20457;-67
2023/11/12 00:50:20;;;;;;;5.13;3.33;;;;;;;10.36;93.16;99872.69;4745549;30;20695;-68
2023/11/12 00:52:53;;;;;;;4.43;4.00;;;;;;;10.55;100.00;99874.34;4750048;30;20637;-68
2023/11/12 00:55:25;;;;;;;3.47;3.17;;;;;;;10.09;93.83;99873.97;4735641;30;20718;-68
2023/11/12 00:57:59;;;;;;;6.35;3.85;;;;;;;10.43;97.24;99873.41;4749456;30;20204;-68
2023/11/12 01:00:34;;;;;;;4.35;2.85;;;;;;;10.38;97.44;99873.28;4734729;30;20201;-68
2023/11/12 01:03:08;;;;;;;3.40;2.40;;;;;;;10.73;96.86;99882.44;4749585;30;20285;-68
2023/11/12 01:05:44;;;;;;;4.50;2.03;;;;;;;10.77;93.66;99882.78;4736837;30;20253;-67
2023/11/12 01:08:19;;;;;;;3.03;2.37;;;;;;;10.54;95.72;99883.50;4736056;30;20456;-68
2023/11/12 01:10:53;;;;;;;3.80;1.93;;;;;;;11.12;94.65;99880.25;4750773;30;20454;-67
2023/11/12 01:13:25;;;;;;;7.40;4.47;;;;;;;11.13;87.65;99887.31;4735272;30;21003;-68
2023/11/12 01:16:02;;;;;;;4.27;2.83;;;;;;;10.54;88.13;99880.78;4733653;30;20970;-68
2023/11/12 01:18:40;;;;;;;4.30;2.17;;;;;;;10.98;90.51;99892.31;4734113;30;20462;-67
2023/11/12 01:21:17;;;;;;;5.67;3.23;;;;;;;10.48;92.61;99892.50;4734139;30;20770;-66
2023/11/12 01:23:50;;;;;;;4.10;1.93;;;;;;;11.16;93.29;99889.53;4747544;30;20551;-66
2023/11/12 01:26:24;;;;;;;4.00;2.73;;;;;;;11.59;89.50;99895.56;4744539;30;20468;-67
2023/11/12 01:28:57;;;;;;;5.37;2.83;;;;;;;11.72;85.60;99899.91;4733846;30;20486;-68
2023/11/12 01:31:31;;;;;;;3.30;2.53;;;;;;;10.64;87.81;99900.03;4734110;30;20441;-68
2023/11/12 01:34:02;;;;;;;4.03;2.20;;;;;;;10.33;86.46;99900.16;4734053;30;21767;-66
2023/11/12 01:36:37;;;;;;;5.10;2.60;;;;;;;10.40;93.16;99898.22;4722999;30;20446;-69
2023/11/12 01:39:12;;;;;;;3.93;2.50;;;;;;;10.18;92.94;99907.81;4734919;30;20453;-66
2023/11/12 01:41:46;;;;;;;5.23;3.13;;;;;;;10.35;91.13;99893.50;4734415;30;20502;-66
2023/11/12 01:44:18;;;;;;;3.97;2.10;;;;;;;10.44;92.84;99892.13;4733816;30;20478;-68
2023/11/12 01:46:52;;;;;;;2.73;2.00;;;;;;;10.37;91.03;99885.13;4748726;30;20536;-68
2023/11/12 01:49:25;;;;;;;7.10;2.60;;;;;;;10.27;91.40;99888.38;4735275;30;20958;-66
2023/11/12 01:51:59;;;;;;;3.20;2.43;;;;;;;10.71;89.45;99892.63;4748580;30;20516;-66
2023/11/12 01:54:33;;;;;;;3.33;2.00;;;;;;;10.34;89.09;99886.44;4733944;30;20457;-67
2023/11/12 01:57:08;;;;;;;3.63;2.20;;;;;;;10.13;94.62;99888.69;4734329;30;20454;-67
2023/11/12 01:59:42;;;;;;;3.17;1.80;;;;;;;11.14;86.66;99887.06;4734879;30;20465;-67
2023/11/12 02:02:15;;;;;;;5.90;2.07;;;;;;;11.33;89.23;99885.94;4734644;30;20478;-67
2023/11/12 02:04:52;;;;;;;3.43;2.13;;;;;;;10.48;87.84;99887.09;4749190;30;20922;-68
2023/11/12 02:07:25;;;;;;;2.60;1.77;;;;;;;11.03;92.08;99881.63;4738267;30;20442;-68
2023/11/12 02:10:09;;;;;;;3.10;1.73;;;;;;;11.36;86.90;99889.25;4749195;30;20470;-67
2023/11/12 02:12:46;;;;;;;7.33;3.20;;;;;;;11.15;85.25;99887.88;4748512;30;20990;-68
2023/11/12 02:15:21;;;;;;;2.80;1.93;;;;;;;10.99;85.32;99885.84;4749178;30;20453;-67
2023/11/12 02:17:53;;;;;;;3.93;1.80;;;;;;;11.60;87.21;99880.13;4736533;30;20565;-68
2023/11/12 02:20:26;;;;;;;4.83;1.90;;;;;;;10.80;85.80;99885.84;4763264;30;20529;-69
2023/11/12 02:23:00;;;;;;;3.10;1.67;;;;;;;10.97;87.94;99887.94;4763295;30;20462;-69
2023/11/12 02:25:36;;;;;;;3.10;2.10;;;;;;;10.52;88.68;99882.88;4748655;30;20433;-68
2023/11/12 02:28:10;;;;;;;2.53;1.80;;;;;;;11.13;83.98;99884.59;4749629;30;20529;-68
2023/11/12 02:30:42;;;;;;;2.37;1.77;;;;;;;11.97;85.92;99883.47;4743836;30;20454;-68
2023/11/12 02:33:17;;;;;;;4.83;2.90;;;;;;;11.70;80.77;99877.66;4748758;30;20469;-67
2023/11/12 02:35:52;;;;;;;2.93;2.13;;;;;;;12.01;81.78;99884.66;4737217;30;20449;-67
2023/11/12 02:38:29;;;;;;;3.70;2.27;;;;;;;12.11;79.89;99883.00;4735007;30;20478;-67
2023/11/12 02:41:09;;;;;;;4.27;2.00;;;;;;;11.67;81.02;99887.06;4748214;30;20470;-69
2023/11/12 02:43:43;;;;;;;4.60;2.40;;;;;;;11.88;81.97;99887.59;4734287;30;20496;-68
2023/11/12 02:46:18;;;;;;;3.30;1.67;;;;;;;11.48;83.91;99882.81;4734720;30;20421;-68
2023/11/12 02:49:05;;;;;;;3.40;1.90;;;;;;;11.16;86.54;99884.97;4729161;30;21016;-67
2023/11/12 02:51:40;;;;;;;3.77;3.00;;;;;;;11.71;82.35;99882.84;4746996;30;20432;-68
2023/11/12 02:54:12;;;;;;;2.50;1.87;;;;;;;11.08;86.57;99881.75;4748723;30;20548;-68
2023/11/12 02:56:46;;;;;;;5.80;2.10;;;;;;;11.42;87.31;99883.75;4746993;30;20467;-68
2023/11/12 02:59:19;;;;;;;2.80;1.53;;;;;;;12.01;85.64;99881.94;4733383;30;20468;-69
2023/11/12 03:01:52;;;;;;;4.10;2.20;;;;;;;12.37;80.85;99887.13;4735077;30;20406;-69
2023/11/12 03:04:25;;;;;;;3.77;2.30;;;;;;;11.72;82.30;99884.53;4730440;30;20482;-67
2023/11/12 03:06:58;;;;;;;4.27;1.90;;;;;;;12.18;81.19;99883.72;4743656;30;20448;-69
2023/11/12 03:09:31;;;;;;;2.63;2.27;;;;;;;11.97;80.73;99883.47;4731604;30;20429;-67
2023/11/12 03:12:06;;;;;;;2.43;1.97;;;;;;;12.07;82.12;99886.44;4744908;30;20541;-68
2023/11/12 03:14:39;;;;;;;1.83;1.53;;;;;;;12.14;79.95;99884.44;4746240;30;20475;-67
2023/11/12 03:17:17;;;;;;;3.80;1.93;;;;;;;12.29;81.23;99887.50;4730536;30;20993;-68
2023/11/12 03:19:50;;;;;;;3.10;2.00;;;;;;;11.89;83.11;99887.38;4732219;30;20493;-67
2023/11/12 03:22:23;;;;;;;7.67;2.40;;;;;;;11.40;83.41;99891.28;4733385;30;20459;-69
2023/11/12 03:24:56;;;;;;;2.47;1.40;;;;;;;11.29;83.10;99892.06;4744310;30;20470;-68
2023/11/12 03:27:31;;;;;;;3.10;1.60;;;;;;;10.34;87.22;99888.31;4731981;30;20463;-67
2023/11/12 03:30:08;;;;;;;2.67;2.47;;;;;;;10.19;87.49;99890.53;4746629;30;20437;-69
2023/11/12 03:32:44;;;;;;;4.93;2.23;;;;;;;10.63;91.37;99886.72;4731726;30;20425;-68
2023/11/12 03:35:23;;;;;;;3.40;2.00;;;;;;;11.24;85.44;99889.22;4731290;30;20457;-67
2023/11/12 03:37:56;;;;;;;3.43;2.43;;;;;;;11.48;85.03;99892.81;4744389;30;20469;-69
2023/11/12 03:40:29;;;;;;;3.57;2.50;;;;;;;11.76;85.14;99891.13;4733265;30;20442;-65
2023/11/12 03:43:04;;;;;;;6.90;2.93;;;;;;;12.54;80.29;99898.03;4731535;30;20507;-66
2023/11/12 03:45:39;;;;;;;3.10;2.43;;;;;;;11.90;79.93;99890.91;4717085;30;20568;-67
2023/11/12 03:48:12;;;;;;;4.23;3.00;;;;;;;11.42;85.57;99891.03;4732068;30;20520;-67
2023/11/12 03:50:45;;;;;;;3.83;2.13;;;;;;;11.74;76.48;99897.84;4746289;30;20511;-67
2023/11/12 03:53:20;;;;;;;3.57;2.67;;;;;;;11.78;83.21;99893.59;4732921;30;20498;-67
2023/11/12 03:55:54;;;;;;;2.80;2.07;;;;;;;11.12;83.06;99897.31;4727490;30;20513;-68
2023/11/12 03:58:32;;;;;;;3.43;1.67;;;;;;;11.29;84.08;99892.06;4736244;30;20450;-68
2023/11/12 04:01:04;;;;;;;5.20;1.73;;;;;;;11.61;85.88;99900.75;4749012;30;20470;-67
2023/11/12 04:03:35;;;;;;;3.07;2.50;;;;;;;11.54;81.08;99903.56;4734184;30;20454;-67
2023/11/12 04:06:10;;;;;;;2.20;1.53;;;;;;;11.74;81.41;99897.84;4746526;30;20528;-66
2023/11/12 04:08:41;;;;;;;2.50;2.30;;;;;;;11.59;82.77;99900.97;4749802;30;20469;-66
2023/11/12 04:11:15;;;;;;;2.83;1.90;;;;;;;11.44;82.04;99897.88;4749659;30;20515;-67
2023/11/12 04:13:52;;;;;;;1.80;1.40;;;;;;;10.58;88.84;99897.38;4731805;30;20457;-68
2023/11/12 04:16:25;;;;;;;2.70;1.60;;;;;;;11.46;85.51;99901.19;4720430;30;20600;-68
2023/11/12 04:18:57;;;;;;;2.43;1.60;;;;;;;11.65;83.44;99900.03;4730410;30;20459;-67
2023/11/12 04:21:30;;;;;;;2.80;1.83;;;;;;;11.80;80.63;99896.09;4749129;30;20632;-66
2023/11/12 04:24:02;;;;;;;2.40;2.00;;;;;;;11.85;81.83;99893.50;4733974;30;20464;-68
2023/11/12 04:26:32;;;;;;;3.70;1.90;;;;;;;11.08;80.17;99901.53;4734235;30;20450;-68
2023/11/12 04:29:10;;;;;;;2.30;1.77;;;;;;;10.71;86.18;99911.56;4748935;30;20457;-68
2023/11/12 04:31:48;;;;;;;2.67;1.60;;;;;;;10.89;83.33;99906.13;4748010;30;20582;-68
2023/11/12 04:34:22;;;;;;;3.37;2.43;;;;;;;11.19;86.92;99902.63;4734219;30;20479;-67
2023/11/12 04:36:56;;;;;;;3.50;1.90;;;;;;;11.45;83.24;99899.53;4736210;30;20453;-68
2023/11/12 04:39:27;;;;;;;1.77;1.50;;;;;;;11.10;85.47;99901.28;4749982;30;20940;-69
2023/11/12 04:42:04;;;;;;;2.20;1.67;;;;;;;11.97;82.60;99905.16;4734658;30;20506;-67
2023/11/12 04:44:39;;;;;;;2.20;1.57;;;;;;;12.00;78.84;99910.13;4750772;30;20482;-68
2023/11/12 04:47:14;;;;;;;3.73;1.70;;;;;;;11.84;78.72;99898.09;4735387;30;20436;-67
2023/11/12 04:49:48;;;;;;;2.30;1.70;;;;;;;12.11;79.87;99909.28;4736075;30;20432;-69
2023/11/12 04:52:22;;;;;;;3.83;2.10;;;;;;;11.80;78.22;99906.94;4748133;30;20436;-67
2023/11/12 04:54:56;;;;;;;3.90;2.27;;;;;;;11.68;82.62;99917.72;4745994;30;21072;-66
2023/11/12 04:57:27;;;;;;;2.27;1.93;;;;;;;11.83;79.71;99911.88;4746392;30;20446;-67
2023/11/12 05:00:01;;;;;;;3.50;2.20;;;;;;;11.23;82.43;99917.38;4733973;30;20699;-67
2023/11/12 05:02:34;;;;;;;2.73;1.83;;;;;;;11.82;81.11;99915.63;4745065;30;20688;-67
2023/11/12 05:05:08;;;;;;;4.20;2.43;;;;;;;10.56;82.45;99913.00;4735448;30;20445;-67
2023/11/12 05:08:05;;;;;;;2.40;1.93;;;;;;;10.82;88.88;99924.34;4734435;30;20523;-69
2023/11/12 05:10:37;;;;;;;2.50;2.00;;;;;;;11.52;85.31;99921.91;4750926;30;20450;-68
2023/11/12 05:13:18;;;;;;;3.33;1.93;;;;;;;11.83;81.01;99925.44;4750470;30;20490;-69
2023/11/12 05:15:56;;;;;;;2.80;1.93;;;;;;;11.21;82.30;99924.88;4731361;30;20483;-69
2023/11/12 05:18:29;;;;;;;3.87;2.30;;;;;;;11.34;84.40;99922.81;4734027;30;20474;-67
2023/11/12 05:21:04;;;;;;;4.70;2.60;;;;;;;10.11;84.66;99925.94;4748306;30;20458;-68
2023/11/12 05:23:37;;;;;;;3.27;1.80;;;;;;;10.01;86.26;99938.09;4748301;30;20489;-68
2023/11/12 05:26:10;;;;;;;2.03;1.53;;;;;;;9.12;93.76;99934.78;4748676;30;20429;-67
2023/11/12 05:28:44;;;;;;;4.45;1.67;;;;;;;8.71;96.29;99940.59;4733062;30;20469;-68
2023/11/12 05:31:22;;;;;;;4.32;2.83;;;;;;;9.50;96.03;99940.97;4748211;30;20208;-68
2023/11/12 05:34:00;;;;;;;2.80;2.50;;;;;;;10.30;92.17;99939.31;4734242;30;20707;-68
2023/11/12 05:36:34;;;;;;;3.97;2.40;;;;;;;10.22;88.22;99946.84;4747895;30;20220;-66
2023/11/12 05:39:06;;;;;;;5.37;2.27;;;;;;;10.04;90.74;99939.50;4748356;30;20462;-68
2023/11/12 05:41:40;;;;;;;4.63;2.75;;;;;;;10.17;92.88;99941.28;4733211;30;20433;-68
2023/11/12 05:44:13;;;;;;;3.33;2.43;;;;;;;11.43;87.28;99944.13;4733934;30;20602;-66
2023/11/12 05:46:47;;;;;;;3.83;2.03;;;;;;;11.15;84.64;99958.28;4733491;30;20431;-67
2023/11/12 05:49:20;;;;;;;3.70;2.30;;;;;;;9.95;87.52;99947.09;4732999;30;20211;-67
2023/11/12 05:51:54;;;;;;;6.13;2.30;;;;;;;9.03;92.49;99945.00;4734513;30;20515;-67
2023/11/12 05:54:24;;;;;;;3.92;2.10;;;;;;;8.59;96.96;99939.56;4747871;30;20509;-69
2023/11/12 05:56:58;;;;;;;3.40;2.83;;;;;;;10.83;92.14;99950.38;4744745;30;20703;-66
2023/11/12 05:59:31;;;;;;;6.83;2.50;;;;;;;11.85;82.89;99953.97;4748043;30;20267;-67
2023/11/12 06:02:05;;;;;;;5.93;2.50;;;;;;;11.60;84.13;99967.66;4748099;30;20462;-66
2023/11/12 06:04:40;;;;;;;5.60;3.07;;;;;;;11.48;80.35;99964.06;4732874;30;20489;-68
2023/11/12 06:07:14;;;;;;;4.60;2.97;;;;;;;10.43;87.12;99954.56;4747832;30;20558;-67
2023/11/12 06:09:46;;;;;;;7.00;2.70;;;;;;;10.11;89.47;99944.88;4746840;30;20497;-68
2023/11/12 06:12:18;;;;;;;2.23;1.40;;;;;;;10.49;91.83;99953.66;4732153;30;20558;-67
2023/11/12 06:14:48;;;;;;;3.17;2.10;;;;;;;11.12;87.51;99954.16;4731867;30;20486;-67
2023/11/12 06:17:20;;;;;;;5.03;3.00;;;;;;;11.28;84.34;99958.09;4733181;30;20547;-67
2023/11/12 06:19:51;;;;;;;4.10;2.10;;;;;;;11.26;83.76;99965.66;4732667;30;20537;-67
2023/11/12 06:22:21;;;;;;;7.20;3.73;;;;;;;11.07;83.40;99967.56;4731593;30;20462;-67
2023/11/12 06:24:51;;;;;;;4.10;2.53;;;;;;;10.04;86.96;99969.25;4732103;30;21081;-65
2023/11/12 06:27:21;;;;;;;4.77;1.83;;;;;;;10.49;90.30;99975.31;4746987;30;20784;-65
2023/11/12 06:29:51;;;;;;;4.67;2.37;;;;;;;10.57;86.21;99982.28;4746282;30;20458;-66
2023/11/12 06:32:23;;;;;;;4.27;1.90;;;;;;;11.04;85.33;99981.53;4731884;30;20469;-66
2023/11/12 06:34:53;;;;;;;3.57;1.97;;;;;;;11.51;83.11;99995.31;4743319;30;20834;-66
2023/11/12 06:37:23;;;;;;;5.27;3.30;;;;;;;11.42;84.70;99997.53;4732346;30;20466;-66
2023/11/12 06:39:53;;;;;;;3.87;2.37;;;;;;;11.65;81.09;100000.31;4733092;30;20801;-67
2023/11/12 06:42:25;;;;;;;5.83;2.80;;;;;;;12.11;82.55;99990.66;4732111;30;20490;-66
2023/11/12 06:44:55;;;;;;;4.43;2.37;;;;;;;11.87;81.87;99997.09;4744224;30;20590;-66
2023/11/12 06:47:26;;;;;;;4.03;2.17;;;;;;;11.60;79.11;99996.63;4746514;30;20513;-64
2023/11/12 06:49:56;;;;;;;2.80;2.07;;;;;;;12.31;80.47;100002.00;4729058;30;20471;-67
2023/11/12 06:52:26;;;;;;;4.47;2.30;;;;;;;12.28;78.87;99997.06;4731271;30;20456;-67
2023/11/12 06:54:56;;;;;;;5.57;2.40;;;;;;;12.97;78.67;100001.59;4732155;30;20520;-68
2023/11/12 06:57:26;;;;;;;2.77;2.50;;;;;;;11.49;76.09;100002.84;4744929;30;21005;-66
2023/11/12 06:59:57;;;;;;;3.13;2.50;;;;;;;11.34;80.44;100005.94;4745742;30;20867;-67
2023/11/12 07:02:29;;;;;;;2.47;1.23;;;;;;;11.54;82.73;100008.38;4744317;30;20474;-68
2023/11/12 07:04:59;;;;;;;2.53;1.70;;;;;;;11.28;80.73;100012.25;4733314;30;20496;-67
2023/11/12 07:07:29;;;;;;;3.00;2.03;;;;;;;11.08;82.65;100017.13;4731102;30;20450;-67
2023/11/12 07:09:59;;;;;;;5.10;3.50;;;;;;;11.15;85.00;100015.16;4732784;30;20513;-68
2023/11/12 07:12:31;;;;;;;4.73;2.47;;;;;;;10.24;84.72;100010.50;4746234;30;20901;-68
2023/11/12 07:15:03;;;;;;;3.03;2.03;;;;;;;9.92;87.32;100001.56;4745938;30;20956;-65
2023/11/12 07:17:36;;;;;;;8.93;6.90;;;;;;;10.49;89.96;100005.06;4742190;30;20464;-66
2023/11/12 07:20:09;;;;;;;3.20;2.13;;;;;;;10.97;84.18;100021.41;4736236;30;20460;-66
2023/11/12 07:22:38;;;;;;;3.00;1.77;;;;;;;10.69;87.33;100029.22;4731757;30;20409;-65
2023/11/12 07:25:09;;;;;;;4.83;2.43;;;;;;;11.06;81.58;100021.94;4749994;30;20824;-66
2023/11/12 07:27:40;;;;;;;2.93;1.57;;;;;;;11.10;84.78;100021.25;4729711;30;20532;-67
2023/11/12 07:30:26;;;;;;;4.10;1.90;;;;;;;10.54;87.42;100021.47;4731419;30;20429;-67
2023/11/12 07:32:58;;;;;;;3.43;2.40;;;;;;;10.29;86.44;100023.34;4732014;30;20516;-67
2023/11/12 07:35:28;;;;;;;2.10;1.80;;;;;;;11.46;85.87;100025.81;4746239;30;20962;-67
2023/11/12 07:37:59;;;;;;;2.40;2.00;;;;;;;11.82;81.05;100030.31;4735577;30;20561;-66
2023/11/12 07:40:30;;;;;;;4.67;3.33;;;;;;;10.63;79.20;100030.94;4748861;30;20462;-66
2023/11/12 07:42:59;;;;;;;2.80;1.50;;;;;;;10.97;83.24;100026.00;4748960;30;20482;-67
2023/11/12 07:45:30;;;;;;;3.03;2.07;;;;;;;10.89;83.14;100030.63;4746046;30;20596;-66
2023/11/12 07:48:12;;;;;;;3.77;1.53;;;;;;;11.01;83.06;100032.59;4748181;30;20462;-71
2023/11/12 07:50:44;;;;;;;1.83;1.63;;;;;;;11.91;82.53;100039.75;4748686;30;20436;-66
2023/11/12 07:53:13;;;;;;;3.07;2.07;;;;;;;11.79;80.48;100043.50;4736528;30;20485;-68
2023/11/12 07:55:44;;;;;;;3.50;1.63;;;;;;;11.74;80.28;100036.06;4748800;30;20968;-67
2023/11/12 07:58:14;;;;;;;3.27;1.83;;;;;;;11.60;79.72;100040.81;4733676;30;20494;-67
2023/11/12 08:00:44;;;;;;;3.60;2.27;;;;;;;11.74;77.45;100036.91;4733422;30;20433;-66
2023/11/12 08:03:17;;;;;;;3.13;2.03;;;;;;;11.94;76.71;100038.50;4733966;30;20536;-67
2023/11/12 08:05:50;;;;;;;1.87;1.20;;;;;;;12.78;76.62;100029.16;4751156;30;20437;-67
2023/11/12 08:08:21;;;;;;;2.83;2.00;;;;;;;11.75;76.12;100035.84;4736524;30;20476;-66
2023/11/12 08:10:51;;;;;;;7.00;3.90;;;;;;;11.37;80.43;100032.59;4734872;30;20458;-66
2023/11/12 08:13:21;;;;;;;1.87;1.67;;;;;;;11.79;77.79;100038.09;4734915;30;20441;-64
2023/11/12 08:15:51;;;;;;;3.27;1.83;;;;;;;12.27;74.57;100041.50;4735247;30;20458;-66
2023/11/12 08:18:23;;;;;;;2.80;2.10;;;;;;;11.72;76.79;100033.56;4739168;30;20587;-66
2023/11/12 08:20:56;;;;;;;3.17;1.67;;;;;;;12.70;76.48;100040.34;4748926;30;20547;-66
2023/11/12 08:23:27;;;;;;;5.57;2.27;;;;;;;12.98;72.93;100043.97;4748393;30;21058;-66
2023/11/12 08:25:59;;;;;;;2.20;1.50;;;;;;;12.68;74.67;100051.47;4732528;30;20436;-66
2023/11/12 08:28:32;;;;;;;1.80;1.47;;;;;;;12.46;73.06;100042.22;4745788;30;20458;-66
2023/11/12 08:31:02;;;;;;;2.93;2.40;;;;;;;12.27;74.80;100037.97;4733798;30;20470;-66
2023/11/12 08:33:35;;;;;;;3.33;2.50;;;;;;;11.90;74.76;100046.28;4734124;30;20497;-67
2023/11/12 08:36:05;;;;;;;2.40;1.53;;;;;;;12.47;75.95;100047.44;4748411;30;20879;-68
2023/11/12 08:38:37;;;;;;;4.13;1.63;;;;;;;12.00;71.79;100045.72;4732656;30;20484;-65
2023/11/12 08:41:08;;;;;;;3.67;2.10;;;;;;;11.59;74.48;100047.28;4746192;30;20527;-65
2023/11/12 08:43:39;;;;;;;1.70;1.40;;;;;;;12.81;74.53;100053.09;4733382;30;20912;-67
2023/11/12 08:46:09;;;;;;;3.67;2.47;;;;;;;12.78;74.11;100054.38;4733683;30;20433;-66
2023/11/12 08:48:42;;;;;;;5.23;1.70;;;;;;;12.23;73.90;100053.88;4746363;30;20906;-66
2023/11/12 08:51:13;;;;;;;2.90;2.27;;;;;;;12.48;75.83;100061.81;4746085;30;20437;-66
2023/11/12 08:53:44;;;;;;;7.60;1.87;;;;;;;12.13;75.57;100070.72;4735000;30;20466;-67
2023/11/12 08:56:16;;;;;;;2.77;1.37;;;;;;;12.56;73.50;100065.00;4733349;30;20478;-65
2023/11/12 08:58:47;;;;;;;1.67;1.20;;;;;;;12.96;73.25;100059.69;4733948;30;20479;-68
2023/11/12 09:01:17;;;;;;;4.43;2.07;;;;;;;12.77;69.67;100066.31;4733012;30;20940;-66
2023/11/12 09:03:49;;;;;;;3.10;2.40;;;;;;;13.32;71.24;100068.63;4733111;30;20498;-65
2023/11/12 09:06:19;;;;;;;3.13;2.47;;;;;;;13.11;71.57;100061.09;4734129;30;20433;-67
2023/11/12 09:08:50;;;;;;;3.17;2.50;;;;;;;12.17;70.08;100065.66;4732811;30;20463;-67
2023/11/12 09:11:20;;;;;;;4.90;3.17;;;;;;;12.23;73.54;100056.59;4733269;30;20432;-66
2023/11/12 09:13:52;;;;;;;6.60;1.40;;;;;;;12.29;67.21;100047.53;4733292;30;20478;-66
2023/11/12 09:16:22;;;;;;;7.40;3.20;;;;;;;12.86;72.50;100053.22;4732014;30;20469;-65
2023/11/12 09:18:53;;;;;;;5.63;2.60;;;;;;;13.37;68.52;100052.44;4732567;30;20478;-66
2023/11/12 09:21:23;;;;;;;4.53;2.43;;;;;;;13.64;66.84;100050.00;4747165;30;20441;-66
2023/11/12 09:23:55;;;;;;;3.33;2.10;;;;;;;12.94;64.64;100061.00;4732686;30;20483;-66
2023/11/12 09:26:25;;;;;;;3.30;1.83;;;;;;;12.71;67.91;100071.88;4732112;30;20541;-66
2023/11/12 09:28:56;;;;;;;11.00;2.30;;;;;;;12.45;69.14;100063.09;4747284;30;20429;-66
2023/11/12 09:31:27;;;;;;;3.20;1.93;;;;;;;12.83;68.77;100072.69;4732574;30;20525;-67
2023/11/12 09:33:58;;;;;;;3.10;1.57;;;;;;;13.11;67.83;100075.53;4743718;30;20465;-68
2023/11/12 09:36:28;;;;;;;2.60;1.63;;;;;;;13.20;66.77;100073.28;4732348;30;20462;-66
2023/11/12 09:38:58;;;;;;;2.03;1.47;;;;;;;12.92;63.93;100079.44;4746113;30;20987;-65
2023/11/12 09:41:30;;;;;;;3.93;1.63;;;;;;;13.00;67.70;100076.34;4734933;30;20430;-70
2023/11/12 09:44:03;;;;;;;2.53;1.40;;;;;;;12.88;65.73;100073.63;4731788;30;20544;-66
2023/11/12 09:46:33;;;;;;;1.80;1.03;;;;;;;12.77;67.91;100079.06;4733651;30;20425;-67
2023/11/12 09:49:06;;;;;;;2.60;1.40;;;;;;;12.41;69.48;100066.53;4746200;30;20465;-66
2023/11/12 09:51:37;;;;;;;9.80;5.03;;;;;;;13.18;67.78;100072.69;4732398;30;20433;-65
2023/11/12 09:54:09;;;;;;;2.10;0.90;;;;;;;12.46;65.90;100075.63;4747884;30;20487;-65
2023/11/12 09:56:39;;;;;;;2.57;1.00;;;;;;;13.29;67.75;100071.84;4744629;30;20490;-65
2023/11/12 09:59:10;;;;;;;2.13;1.70;;;;;;;12.96;66.42;100069.75;4733498;30;20593;-64
2023/11/12 10:01:39;;;;;;;8.33;2.10;;;;;;;12.61;68.06;100075.16;4732142;30;20507;-65
2023/11/12 10:04:13;;;;;;;1.57;0.93;;;;;;;12.56;69.59;100075.88;4746734;30;20473;-66
2023/11/12 10:06:46;;;;;;;1.73;1.00;;;;;;;12.55;66.82;100078.81;4731001;30;20484;-66
2023/11/12 10:09:26;;;;;;;2.70;1.50;;;;;;;12.18;71.38;100079.00;4731478;30;20466;-65
2023/11/12 10:12:04;;;;;;;1.20;0.83;;;;;;;11.94;71.35;100079.16;4734898;30;20542;-67
2023/11/12 10:14:34;;;;;;;3.23;1.23;;;;;;;11.35;76.63;100088.88;4745830;30;20953;-66
2023/11/12 10:17:11;;;;;;;1.60;0.90;;;;;;;11.08;73.90;100091.06;4746510;30;20459;-65
2023/11/12 10:19:57;;;;;;;4.50;1.10;;;;;;;11.10;79.86;100090.81;4730134;30;20460;-66
2023/11/12 10:22:39;;;;;;;2.67;1.40;;;;;;;12.14;76.80;100093.25;4746898;30;20528;-67
2023/11/12 10:25:10;;;;;;;1.57;1.00;;;;;;;12.72;75.13;100089.81;4747675;30;20485;-67
2023/11/12 10:27:53;;;;;;;1.30;0.80;;;;;;;12.75;75.33;100089.31;4746416;30;20443;-68
2023/11/12 10:30:24;;;;;;;1.60;0.90;;;;;;;12.42;75.14;100087.19;4744652;30;20569;-67
2023/11/12 10:33:00;;;;;;;4.53;1.17;;;;;;;12.18;76.73;100089.84;4729447;30;20424;-67
2023/11/12 10:35:31;;;;;;;1.83;1.30;;;;;;;12.02;77.29;100089.66;4733081;30;20488;-66
2023/11/12 10:38:02;;;;;;;1.70;1.40;;;;;;;10.95;79.93;100083.06;4749312;30;20441;-66
2023/11/12 10:40:33;;;;;;;2.10;1.30;;;;;;;11.34;80.24;100087.19;4745493;30;20473;-66
2023/11/12 10:43:09;;;;;;;2.63;0.97;;;;;;;12.35;78.76;100089.16;4745919;30;20460;-67
2023/11/12 10:45:40;;;;;;;2.13;1.27;;;;;;;12.52;75.01;100085.56;4744429;30;20575;-67
2023/11/12 10:48:15;;;;;;;1.50;0.80;;;;;;;11.84;79.18;100093.28;4730741;30;20523;-66
2023/11/12 10:50:47;;;;;;;2.40;1.10;;;;;;;12.01;78.89;100093.44;4731713;30;20462;-66
2023/11/12 10:53:20;;;;;;;2.27;0.70;;;;;;;12.92;76.52;100093.00;4732028;30;20493;-66
2023/11/12 10:55:55;;;;;;;3.27;1.47;;;;;;;12.96;74.30;100086.03;4734565;30;20450;-67
2023/11/12 10:58:26;;;;;;;1.90;0.83;;;;;;;13.11;72.47;100091.84;4729475;30;20574;-66
2023/11/12 11:00:59;;;;;;;2.63;1.20;;;;;;;13.14;74.68;100080.47;4744225;30;20467;-67
2023/11/12 11:03:31;;;;;;;1.57;0.93;;;;;;;13.61;71.25;100085.81;4732856;30;20557;-67
2023/11/12 11:06:05;;;;;;;1.57;1.23;;;;;;;13.41;71.27;100086.22;4732051;30;20765;-66
2023/11/12 11:08:35;;;;;;;2.93;2.00;;;;;;;13.44;70.58;100089.28;4731620;30;20517;-67
2023/11/12 11:11:07;;;;;;;1.93;1.23;;;;;;;12.94;74.47;100090.84;4731113;30;20440;-67
2023/11/12 11:13:41;;;;;;;2.70;1.53;;;;;;;12.88;72.64;100094.50;4730890;30;20486;-66
2023/11/12 11:16:31;;;;;;;2.10;1.00;;;;;;;12.47;77.52;100092.72;4746346;30;21119;-66
2023/11/12 11:19:03;;;;;;;2.07;1.63;;;;;;;12.58;74.64;100090.03;4744936;30;20518;-67
2023/11/12 11:21:35;;;;;;;3.77;1.43;;;;;;;13.03;74.15;100087.53;4733578;30;20873;-66
2023/11/12 11:24:06;;;;;;;2.37;1.80;;;;;;;12.99;73.62;100093.69;4744708;30;20880;-67
2023/11/12 11:26:39;;;;;;;3.17;1.90;;;;;;;12.73;75.09;100094.19;4729202;30;20460;-66
2023/11/12 11:29:16;;;;;;;4.20;1.90;;;;;;;12.91;75.97;100088.63;4730532;30;20481;-66
2023/11/12 11:32:17;;;;;;;1.70;1.60;;;;;;;13.30;75.26;100082.47;4745690;30;20437;-67
2023/11/12 11:34:48;;;;;;;2.60;2.40;;;;;;;13.02;74.32;100085.09;4745081;30;20527;-66
2023/11/12 11:37:21;;;;;;;5.53;2.20;;;;;;;12.59;75.79;100083.53;4731427;30;20815;-67
2023/11/12 11:39:51;;;;;;;8.17;3.80;;;;;;;12.71;76.24;100083.56;4730663;30;20464;-67
2023/11/12 11:42:24;;;;;;;3.67;3.37;;;;;;;13.03;83.38;100087.53;4729027;30;20432;-66
2023/11/12 11:45:05;;;;;;;4.50;2.47;;;;;;;12.26;82.67;100090.56;4744322;30;20484;-66
2023/11/12 11:47:35;;;;;;;9.57;3.17;;;;;;;12.94;83.18;100082.72;4732253;30;20470;-66
2023/11/12 11:50:33;;;;;;;6.17;4.00;;;;;;;13.47;82.10;100091.53;4745277;30;20458;-66
2023/11/12 11:53:19;;;;;;;6.60;3.67;;;;;;;13.23;80.92;100092.63;4729431;30;20453;-67
2023/11/12 11:55:56;;;;;;;7.93;3.33;;;;;;;12.89;77.55;100094.28;4731950;30;20504;-66
2023/11/12 11:58:30;;;;;;;3.73;2.73;;;;;;;13.14;79.63;100095.94;4730868;30;20945;-67